sensor_id;sensor_type;location;lat;lon;timestamp;temperature;humidity
9658;DHT22;4867;48.112;11.622;2023-06-22T00:00:23;21.30;99.90
9658;DHT22;4867;48.112;11.622;2023-06-22T00:02:50;21.30;99.90
9658;DHT22;4867;48.112;11.622;2023-06-22T00:05:18;21.20;99.90
9658;DHT22;4867;48.112;11.622;2023-06-22T00:07:45;21.20;99.90
9658;DHT22;4867;48.112;11.622;2023-06-22T00:10:12;21.20;99.90
9658;DHT22;4867;48.112;11.622;2023-06-22T00:12:40;21.10;99.90
9658;DHT22;4867;48.112;11.622;2023-06-22T00:15:07;21.10;99.90
9658;DHT22;4867;48.112;11.622;2023-06-22T00:17:34;21.10;99.90
9658;DHT22;4867;48.112;11.622;2023-06-22T00:20:03;21.00;99.90
9658;DHT22;4867;48.112;11.622;2023-06-22T00:22:34;21.00;99.90
9658;DHT22;4867;48.112;11.622;2023-06-22T00:25:07;21.00;99.90
9658;DHT22;4867;48.112;11.622;2023-06-22T00:27:35;20.90;99.90
9658;DHT22;4867;48.112;11.622;2023-06-22T00:30:03;20.90;99.90
9658;DHT22;4867;48.112;11.622;2023-06-22T00:32:30;20.90;99.90
9658;DHT22;4867;48.112;11.622;2023-06-22T00:34:58;20.90;99.90
9658;DHT22;4867;48.112;11.622;2023-06-22T00:37:25;20.90;99.90
9658;DHT22;4867;48.112;11.622;2023-06-22T00:39:53;20.90;99.90
9658;DHT22;4867;48.112;11.622;2023-06-22T00:42:20;20.80;99.90
9658;DHT22;4867;48.112;11.622;2023-06-22T00:44:47;20.70;99.90
9658;DHT22;4867;48.112;11.622;2023-06-22T00:47:17;20.70;99.90
9658;DHT22;4867;48.112;11.622;2023-06-22T00:49:45;20.70;99.90
9658;DHT22;4867;48.112;11.622;2023-06-22T00:52:14;20.70;99.90
9658;DHT22;4867;48.112;11.622;2023-06-22T00:54:50;20.70;99.90
9658;DHT22;4867;48.112;11.622;2023-06-22T00:57:19;20.70;99.90
9658;DHT22;4867;48.112;11.622;2023-06-22T00:59:48;20.60;99.90
9658;DHT22;4867;48.112;11.622;2023-06-22T01:02:15;20.60;99.90
9658;DHT22;4867;48.112;11.622;2023-06-22T01:04:42;20.50;99.90
9658;DHT22;4867;48.112;11.622;2023-06-22T01:07:27;20.50;99.90
9658;DHT22;4867;48.112;11.622;2023-06-22T01:10:07;20.50;99.90
9658;DHT22;4867;48.112;11.622;2023-06-22T01:12:44;20.40;99.90
9658;DHT22;4867;48.112;11.622;2023-06-22T01:15:23;20.40;99.90
9658;DHT22;4867;48.112;11.622;2023-06-22T01:17:52;20.40;99.90
9658;DHT22;4867;48.112;11.622;2023-06-22T01:20:21;20.40;99.90
9658;DHT22;4867;48.112;11.622;2023-06-22T01:22:58;20.30;99.90
9658;DHT22;4867;48.112;11.622;2023-06-22T01:25:36;20.30;99.90
9658;DHT22;4867;48.112;11.622;2023-06-22T01:30:59;20.30;99.90
9658;DHT22;4867;48.112;11.622;2023-06-22T01:33:35;20.30;99.90
9658;DHT22;4867;48.112;11.622;2023-06-22T01:36:04;20.20;99.90
9658;DHT22;4867;48.112;11.622;2023-06-22T01:38:33;20.20;99.90
9658;DHT22;4867;48.112;11.622;2023-06-22T01:41:01;20.20;99.90
9658;DHT22;4867;48.112;11.622;2023-06-22T01:43:30;20.20;99.90
9658;DHT22;4867;48.112;11.622;2023-06-22T01:46:00;20.20;99.90
9658;DHT22;4867;48.112;11.622;2023-06-22T01:48:28;20.10;99.90
9658;DHT22;4867;48.112;11.622;2023-06-22T01:50:56;20.10;99.90
9658;DHT22;4867;48.112;11.622;2023-06-22T01:53:24;20.10;99.90
9658;DHT22;4867;48.112;11.622;2023-06-22T01:55:52;20.10;99.90
9658;DHT22;4867;48.112;11.622;2023-06-22T01:58:25;20.00;99.90
9658;DHT22;4867;48.112;11.622;2023-06-22T02:00:58;20.00;99.90
9658;DHT22;4867;48.112;11.622;2023-06-22T02:03:31;20.00;99.90
9658;DHT22;4867;48.112;11.622;2023-06-22T02:06:06;20.00;99.90
9658;DHT22;4867;48.112;11.622;2023-06-22T02:08:41;20.00;99.90
9658;DHT22;4867;48.112;11.622;2023-06-22T02:11:15;20.00;99.90
9658;DHT22;4867;48.112;11.622;2023-06-22T02:13:44;19.90;99.90
9658;DHT22;4867;48.112;11.622;2023-06-22T02:16:12;20.00;99.90
9658;DHT22;4867;48.112;11.622;2023-06-22T02:18:49;20.00;99.90
9658;DHT22;4867;48.112;11.622;2023-06-22T02:21:20;19.90;99.90
9658;DHT22;4867;48.112;11.622;2023-06-22T02:23:48;19.90;99.90
9658;DHT22;4867;48.112;11.622;2023-06-22T02:26:17;20.00;99.90
9658;DHT22;4867;48.112;11.622;2023-06-22T02:28:45;19.90;99.90
9658;DHT22;4867;48.112;11.622;2023-06-22T02:31:13;19.90;99.90
9658;DHT22;4867;48.112;11.622;2023-06-22T02:33:40;19.90;99.90
9658;DHT22;4867;48.112;11.622;2023-06-22T02:36:10;19.90;99.90
9658;DHT22;4867;48.112;11.622;2023-06-22T02:38:43;19.90;99.90
9658;DHT22;4867;48.112;11.622;2023-06-22T02:41:15;19.80;99.90
9658;DHT22;4867;48.112;11.622;2023-06-22T02:43:46;19.80;99.90
9658;DHT22;4867;48.112;11.622;2023-06-22T02:46:14;19.70;99.90
9658;DHT22;4867;48.112;11.622;2023-06-22T02:48:48;19.70;99.90
9658;DHT22;4867;48.112;11.622;2023-06-22T02:51:16;19.60;99.90
9658;DHT22;4867;48.112;11.622;2023-06-22T02:53:45;19.60;99.90
9658;DHT22;4867;48.112;11.622;2023-06-22T02:56:15;19.60;99.90
9658;DHT22;4867;48.112;11.622;2023-06-22T02:58:43;19.60;99.90
9658;DHT22;4867;48.112;11.622;2023-06-22T03:01:11;19.50;99.90
9658;DHT22;4867;48.112;11.622;2023-06-22T03:03:43;19.50;99.90
9658;DHT22;4867;48.112;11.622;2023-06-22T03:06:11;19.50;99.90
9658;DHT22;4867;48.112;11.622;2023-06-22T03:08:41;19.40;99.90
9658;DHT22;4867;48.112;11.622;2023-06-22T03:11:09;19.40;99.90
9658;DHT22;4867;48.112;11.622;2023-06-22T03:13:36;19.40;99.90
9658;DHT22;4867;48.112;11.622;2023-06-22T03:16:03;19.40;99.90
9658;DHT22;4867;48.112;11.622;2023-06-22T03:18:31;19.40;99.90
9658;DHT22;4867;48.112;11.622;2023-06-22T03:20:58;19.40;99.90
9658;DHT22;4867;48.112;11.622;2023-06-22T03:23:25;19.40;99.90
9658;DHT22;4867;48.112;11.622;2023-06-22T03:25:53;19.40;99.90
9658;DHT22;4867;48.112;11.622;2023-06-22T03:28:22;19.40;99.90
9658;DHT22;4867;48.112;11.622;2023-06-22T03:30:50;19.40;99.90
9658;DHT22;4867;48.112;11.622;2023-06-22T03:33:17;19.40;99.90
9658;DHT22;4867;48.112;11.622;2023-06-22T03:35:45;19.40;99.90
9658;DHT22;4867;48.112;11.622;2023-06-22T03:38:12;19.40;99.90
9658;DHT22;4867;48.112;11.622;2023-06-22T03:40:39;19.50;99.90
9658;DHT22;4867;48.112;11.622;2023-06-22T03:43:07;19.50;99.90
9658;DHT22;4867;48.112;11.622;2023-06-22T03:45:35;19.60;99.90
9658;DHT22;4867;48.112;11.622;2023-06-22T03:48:03;19.70;99.90
9658;DHT22;4867;48.112;11.622;2023-06-22T03:50:31;19.70;99.90
9658;DHT22;4867;48.112;11.622;2023-06-22T03:52:58;19.80;99.90
9658;DHT22;4867;48.112;11.622;2023-06-22T03:55:26;19.90;99.90
9658;DHT22;4867;48.112;11.622;2023-06-22T03:57:53;20.10;99.90
9658;DHT22;4867;48.112;11.622;2023-06-22T04:00:24;20.30;99.90
9658;DHT22;4867;48.112;11.622;2023-06-22T04:02:51;20.40;99.90
9658;DHT22;4867;48.112;11.622;2023-06-22T04:05:19;20.60;99.90
9658;DHT22;4867;48.112;11.622;2023-06-22T04:07:46;20.70;99.90
9658;DHT22;4867;48.112;11.622;2023-06-22T04:10:13;20.90;99.90
9658;DHT22;4867;48.112;11.622;2023-06-22T04:12:44;21.00;99.90
9658;DHT22;4867;48.112;11.622;2023-06-22T04:15:11;21.20;99.90
9658;DHT22;4867;48.112;11.622;2023-06-22T04:17:39;21.40;99.90
9658;DHT22;4867;48.112;11.622;2023-06-22T04:20:07;21.50;99.90
9658;DHT22;4867;48.112;11.622;2023-06-22T04:22:35;21.60;99.90
9658;DHT22;4867;48.112;11.622;2023-06-22T04:25:02;21.70;99.90
9658;DHT22;4867;48.112;11.622;2023-06-22T04:27:30;21.80;99.90
9658;DHT22;4867;48.112;11.622;2023-06-22T04:29:57;21.90;99.90
9658;DHT22;4867;48.112;11.622;2023-06-22T04:32:27;21.90;99.90
9658;DHT22;4867;48.112;11.622;2023-06-22T04:34:55;22.00;99.90
9658;DHT22;4867;48.112;11.622;2023-06-22T04:37:22;22.10;99.90
9658;DHT22;4867;48.112;11.622;2023-06-22T04:39:50;22.10;99.90
9658;DHT22;4867;48.112;11.622;2023-06-22T04:42:18;22.10;99.90
9658;DHT22;4867;48.112;11.622;2023-06-22T04:44:45;22.10;99.90
9658;DHT22;4867;48.112;11.622;2023-06-22T04:47:12;22.10;99.90
9658;DHT22;4867;48.112;11.622;2023-06-22T04:49:40;22.20;99.90
9658;DHT22;4867;48.112;11.622;2023-06-22T04:52:12;22.20;99.90
9658;DHT22;4867;48.112;11.622;2023-06-22T04:54:40;22.30;99.90
9658;DHT22;4867;48.112;11.622;2023-06-22T04:57:15;22.40;99.90
9658;DHT22;4867;48.112;11.622;2023-06-22T04:59:42;22.60;99.90
9658;DHT22;4867;48.112;11.622;2023-06-22T05:02:10;22.60;99.90
9658;DHT22;4867;48.112;11.622;2023-06-22T05:04:38;22.60;99.90
9658;DHT22;4867;48.112;11.622;2023-06-22T05:07:07;22.70;99.90
9658;DHT22;4867;48.112;11.622;2023-06-22T05:09:34;22.90;99.90
9658;DHT22;4867;48.112;11.622;2023-06-22T05:12:02;23.20;99.90
9658;DHT22;4867;48.112;11.622;2023-06-22T05:14:30;23.70;99.90
9658;DHT22;4867;48.112;11.622;2023-06-22T05:16:57;23.80;99.90
9658;DHT22;4867;48.112;11.622;2023-06-22T05:19:31;23.80;99.90
9658;DHT22;4867;48.112;11.622;2023-06-22T05:22:01;23.80;99.90
9658;DHT22;4867;48.112;11.622;2023-06-22T05:24:29;23.80;99.90
9658;DHT22;4867;48.112;11.622;2023-06-22T05:26:56;23.90;99.90
9658;DHT22;4867;48.112;11.622;2023-06-22T05:29:23;24.00;99.90
9658;DHT22;4867;48.112;11.622;2023-06-22T05:31:51;24.10;99.90
9658;DHT22;4867;48.112;11.622;2023-06-22T05:34:18;24.30;99.90
9658;DHT22;4867;48.112;11.622;2023-06-22T05:36:45;24.30;99.90
9658;DHT22;4867;48.112;11.622;2023-06-22T05:39:14;24.30;99.90
9658;DHT22;4867;48.112;11.622;2023-06-22T05:41:42;24.30;99.90
9658;DHT22;4867;48.112;11.622;2023-06-22T05:44:10;24.20;99.90
9658;DHT22;4867;48.112;11.622;2023-06-22T05:46:41;24.10;99.90
9658;DHT22;4867;48.112;11.622;2023-06-22T05:49:12;23.90;99.90
9658;DHT22;4867;48.112;11.622;2023-06-22T05:51:41;23.80;99.90
9658;DHT22;4867;48.112;11.622;2023-06-22T05:54:08;23.80;99.90
9658;DHT22;4867;48.112;11.622;2023-06-22T05:56:36;23.70;99.90
9658;DHT22;4867;48.112;11.622;2023-06-22T05:59:04;23.80;99.90
9658;DHT22;4867;48.112;11.622;2023-06-22T06:01:31;23.90;99.90
9658;DHT22;4867;48.112;11.622;2023-06-22T06:04:04;24.00;99.90
9658;DHT22;4867;48.112;11.622;2023-06-22T06:06:31;24.10;99.90
9658;DHT22;4867;48.112;11.622;2023-06-22T06:08:59;24.20;99.90
9658;DHT22;4867;48.112;11.622;2023-06-22T06:11:27;24.30;99.90
9658;DHT22;4867;48.112;11.622;2023-06-22T06:13:54;24.40;99.90
9658;DHT22;4867;48.112;11.622;2023-06-22T06:16:22;24.50;99.90
9658;DHT22;4867;48.112;11.622;2023-06-22T06:18:49;24.50;99.90
9658;DHT22;4867;48.112;11.622;2023-06-22T06:21:17;24.50;99.90
9658;DHT22;4867;48.112;11.622;2023-06-22T06:23:45;24.60;99.90
9658;DHT22;4867;48.112;11.622;2023-06-22T06:26:12;24.70;99.90
9658;DHT22;4867;48.112;11.622;2023-06-22T06:28:40;24.80;99.90
9658;DHT22;4867;48.112;11.622;2023-06-22T06:31:08;24.80;99.90
9658;DHT22;4867;48.112;11.622;2023-06-22T06:33:36;24.90;99.90
9658;DHT22;4867;48.112;11.622;2023-06-22T06:36:03;25.00;99.90
9658;DHT22;4867;48.112;11.622;2023-06-22T06:38:31;25.00;99.90
9658;DHT22;4867;48.112;11.622;2023-06-22T06:40:59;25.00;99.90
9658;DHT22;4867;48.112;11.622;2023-06-22T06:43:26;25.20;99.90
9658;DHT22;4867;48.112;11.622;2023-06-22T06:45:54;25.20;99.90
9658;DHT22;4867;48.112;11.622;2023-06-22T06:48:21;25.30;99.90
9658;DHT22;4867;48.112;11.622;2023-06-22T06:50:48;25.40;99.90
9658;DHT22;4867;48.112;11.622;2023-06-22T06:53:17;25.40;99.90
9658;DHT22;4867;48.112;11.622;2023-06-22T06:55:44;25.50;99.90
9658;DHT22;4867;48.112;11.622;2023-06-22T06:58:12;25.60;99.90
9658;DHT22;4867;48.112;11.622;2023-06-22T07:00:40;25.80;99.90
9658;DHT22;4867;48.112;11.622;2023-06-22T07:03:08;25.80;99.90
9658;DHT22;4867;48.112;11.622;2023-06-22T07:05:36;26.10;99.90
9658;DHT22;4867;48.112;11.622;2023-06-22T07:08:03;26.10;99.90
9658;DHT22;4867;48.112;11.622;2023-06-22T07:10:31;26.10;99.90
9658;DHT22;4867;48.112;11.622;2023-06-22T07:12:59;26.10;99.90
9658;DHT22;4867;48.112;11.622;2023-06-22T07:15:26;26.20;99.90
9658;DHT22;4867;48.112;11.622;2023-06-22T07:17:54;26.30;99.90
9658;DHT22;4867;48.112;11.622;2023-06-22T07:20:21;26.50;99.90
9658;DHT22;4867;48.112;11.622;2023-06-22T07:22:49;26.60;99.90
9658;DHT22;4867;48.112;11.622;2023-06-22T07:25:16;26.60;99.90
9658;DHT22;4867;48.112;11.622;2023-06-22T07:27:46;26.80;99.90
9658;DHT22;4867;48.112;11.622;2023-06-22T07:30:15;26.90;99.90
9658;DHT22;4867;48.112;11.622;2023-06-22T07:32:42;27.00;99.90
9658;DHT22;4867;48.112;11.622;2023-06-22T07:35:10;27.10;99.90
9658;DHT22;4867;48.112;11.622;2023-06-22T07:37:37;27.20;99.90
9658;DHT22;4867;48.112;11.622;2023-06-22T07:40:06;27.20;99.90
9658;DHT22;4867;48.112;11.622;2023-06-22T07:42:34;27.30;99.90
9658;DHT22;4867;48.112;11.622;2023-06-22T07:45:03;27.40;99.90
9658;DHT22;4867;48.112;11.622;2023-06-22T07:47:31;27.50;99.90
9658;DHT22;4867;48.112;11.622;2023-06-22T07:50:03;27.50;99.90
9658;DHT22;4867;48.112;11.622;2023-06-22T07:52:31;27.60;99.90
9658;DHT22;4867;48.112;11.622;2023-06-22T07:54:59;27.60;99.90
9658;DHT22;4867;48.112;11.622;2023-06-22T07:57:26;27.70;99.90
9658;DHT22;4867;48.112;11.622;2023-06-22T08:00:00;27.80;99.90
9658;DHT22;4867;48.112;11.622;2023-06-22T08:02:39;27.90;99.90
9658;DHT22;4867;48.112;11.622;2023-06-22T08:05:08;27.90;99.90
9658;DHT22;4867;48.112;11.622;2023-06-22T08:07:47;27.90;99.90
9658;DHT22;4867;48.112;11.622;2023-06-22T08:10:15;28.00;99.90
9658;DHT22;4867;48.112;11.622;2023-06-22T08:12:43;28.10;99.90
9658;DHT22;4867;48.112;11.622;2023-06-22T08:15:10;28.10;99.90
9658;DHT22;4867;48.112;11.622;2023-06-22T08:17:38;28.30;99.90
9658;DHT22;4867;48.112;11.622;2023-06-22T08:20:07;28.30;99.90
9658;DHT22;4867;48.112;11.622;2023-06-22T08:22:40;28.50;99.90
9658;DHT22;4867;48.112;11.622;2023-06-22T08:25:08;28.50;99.90
9658;DHT22;4867;48.112;11.622;2023-06-22T08:27:36;28.70;99.90
9658;DHT22;4867;48.112;11.622;2023-06-22T08:30:04;28.70;99.90
9658;DHT22;4867;48.112;11.622;2023-06-22T08:32:31;28.90;99.90
9658;DHT22;4867;48.112;11.622;2023-06-22T08:35:00;29.00;99.90
9658;DHT22;4867;48.112;11.622;2023-06-22T08:37:28;29.00;99.90
9658;DHT22;4867;48.112;11.622;2023-06-22T08:39:59;29.10;99.90
9658;DHT22;4867;48.112;11.622;2023-06-22T08:42:28;29.00;99.90
9658;DHT22;4867;48.112;11.622;2023-06-22T08:44:56;28.90;99.90
9658;DHT22;4867;48.112;11.622;2023-06-22T08:47:23;29.00;99.90
9658;DHT22;4867;48.112;11.622;2023-06-22T08:49:50;29.00;99.90
9658;DHT22;4867;48.112;11.622;2023-06-22T08:52:18;29.00;99.90
9658;DHT22;4867;48.112;11.622;2023-06-22T08:54:47;29.10;99.90
9658;DHT22;4867;48.112;11.622;2023-06-22T08:57:15;29.40;99.90
9658;DHT22;4867;48.112;11.622;2023-06-22T08:59:43;29.60;99.90
9658;DHT22;4867;48.112;11.622;2023-06-22T09:02:10;29.80;99.90
9658;DHT22;4867;48.112;11.622;2023-06-22T09:04:38;29.80;99.90
9658;DHT22;4867;48.112;11.622;2023-06-22T09:07:05;30.00;99.90
9658;DHT22;4867;48.112;11.622;2023-06-22T09:09:33;30.20;99.90
9658;DHT22;4867;48.112;11.622;2023-06-22T09:12:01;30.30;99.90
9658;DHT22;4867;48.112;11.622;2023-06-22T09:14:28;30.50;99.90
9658;DHT22;4867;48.112;11.622;2023-06-22T09:16:55;30.50;99.90
9658;DHT22;4867;48.112;11.622;2023-06-22T09:19:23;30.50;99.90
9658;DHT22;4867;48.112;11.622;2023-06-22T09:21:50;30.50;99.90
9658;DHT22;4867;48.112;11.622;2023-06-22T09:24:17;30.50;99.90
9658;DHT22;4867;48.112;11.622;2023-06-22T09:26:45;30.50;99.90
9658;DHT22;4867;48.112;11.622;2023-06-22T09:29:12;30.60;99.90
9658;DHT22;4867;48.112;11.622;2023-06-22T09:31:39;30.70;99.90
9658;DHT22;4867;48.112;11.622;2023-06-22T09:34:07;30.60;99.90
9658;DHT22;4867;48.112;11.622;2023-06-22T09:36:34;30.80;99.90
9658;DHT22;4867;48.112;11.622;2023-06-22T09:39:02;30.90;99.90
9658;DHT22;4867;48.112;11.622;2023-06-22T09:41:33;31.00;99.90
9658;DHT22;4867;48.112;11.622;2023-06-22T09:44:00;31.10;99.90
9658;DHT22;4867;48.112;11.622;2023-06-22T09:46:29;31.20;99.90
9658;DHT22;4867;48.112;11.622;2023-06-22T09:48:56;31.40;99.90
9658;DHT22;4867;48.112;11.622;2023-06-22T09:51:24;31.40;99.90
9658;DHT22;4867;48.112;11.622;2023-06-22T09:53:52;31.50;99.90
9658;DHT22;4867;48.112;11.622;2023-06-22T09:56:21;31.60;99.90
9658;DHT22;4867;48.112;11.622;2023-06-22T09:58:48;31.70;99.90
9658;DHT22;4867;48.112;11.622;2023-06-22T10:01:20;31.80;99.90
9658;DHT22;4867;48.112;11.622;2023-06-22T10:03:48;31.80;99.90
9658;DHT22;4867;48.112;11.622;2023-06-22T10:06:16;31.90;99.90
9658;DHT22;4867;48.112;11.622;2023-06-22T10:08:44;32.00;99.90
9658;DHT22;4867;48.112;11.622;2023-06-22T10:11:11;32.00;99.90
9658;DHT22;4867;48.112;11.622;2023-06-22T10:13:38;32.10;99.90
9658;DHT22;4867;48.112;11.622;2023-06-22T10:16:06;32.10;99.80
9658;DHT22;4867;48.112;11.622;2023-06-22T10:18:34;32.20;99.90
9658;DHT22;4867;48.112;11.622;2023-06-22T10:21:01;32.30;99.90
9658;DHT22;4867;48.112;11.622;2023-06-22T10:23:29;32.30;99.70
9658;DHT22;4867;48.112;11.622;2023-06-22T10:25:56;32.30;99.90
9658;DHT22;4867;48.112;11.622;2023-06-22T10:28:25;32.50;99.70
9658;DHT22;4867;48.112;11.622;2023-06-22T10:30:52;32.50;99.50
9658;DHT22;4867;48.112;11.622;2023-06-22T10:33:20;32.60;99.00
9658;DHT22;4867;48.112;11.622;2023-06-22T10:35:47;32.60;98.70
9658;DHT22;4867;48.112;11.622;2023-06-22T10:38:15;32.60;98.90
9658;DHT22;4867;48.112;11.622;2023-06-22T10:40:42;32.70;98.50
9658;DHT22;4867;48.112;11.622;2023-06-22T10:43:09;32.80;98.10
9658;DHT22;4867;48.112;11.622;2023-06-22T10:45:37;33.00;97.70
9658;DHT22;4867;48.112;11.622;2023-06-22T10:48:04;32.90;97.20
9658;DHT22;4867;48.112;11.622;2023-06-22T10:50:32;32.90;97.60
9658;DHT22;4867;48.112;11.622;2023-06-22T10:52:59;33.10;97.30
9658;DHT22;4867;48.112;11.622;2023-06-22T10:55:26;33.20;97.10
9658;DHT22;4867;48.112;11.622;2023-06-22T10:58:06;33.30;96.70
9658;DHT22;4867;48.112;11.622;2023-06-22T11:00:35;33.40;96.80
9658;DHT22;4867;48.112;11.622;2023-06-22T11:03:02;33.50;96.90
9658;DHT22;4867;48.112;11.622;2023-06-22T11:05:30;33.60;96.80
9658;DHT22;4867;48.112;11.622;2023-06-22T11:07:57;33.70;95.70
9658;DHT22;4867;48.112;11.622;2023-06-22T11:10:24;33.90;95.70
9658;DHT22;4867;48.112;11.622;2023-06-22T11:12:53;33.90;95.20
9658;DHT22;4867;48.112;11.622;2023-06-22T11:15:20;33.90;95.40
9658;DHT22;4867;48.112;11.622;2023-06-22T11:17:47;33.80;95.00
9658;DHT22;4867;48.112;11.622;2023-06-22T11:20:15;33.70;95.40
9658;DHT22;4867;48.112;11.622;2023-06-22T11:22:42;33.70;95.30
9658;DHT22;4867;48.112;11.622;2023-06-22T11:25:10;33.80;95.20
9658;DHT22;4867;48.112;11.622;2023-06-22T11:27:39;33.80;94.90
9658;DHT22;4867;48.112;11.622;2023-06-22T11:30:07;33.80;94.60
9658;DHT22;4867;48.112;11.622;2023-06-22T11:32:35;33.80;95.00
9658;DHT22;4867;48.112;11.622;2023-06-22T11:35:03;34.00;94.90
9658;DHT22;4867;48.112;11.622;2023-06-22T11:37:30;34.10;94.60
9658;DHT22;4867;48.112;11.622;2023-06-22T11:39:58;34.30;94.90
9658;DHT22;4867;48.112;11.622;2023-06-22T11:42:33;34.40;94.10
9658;DHT22;4867;48.112;11.622;2023-06-22T11:45:02;34.30;94.30
9658;DHT22;4867;48.112;11.622;2023-06-22T11:47:32;34.30;94.20
9658;DHT22;4867;48.112;11.622;2023-06-22T11:49:59;34.20;94.00
9658;DHT22;4867;48.112;11.622;2023-06-22T11:52:26;34.30;94.40
9658;DHT22;4867;48.112;11.622;2023-06-22T11:54:54;34.40;94.00
9658;DHT22;4867;48.112;11.622;2023-06-22T11:57:22;34.50;94.10
9658;DHT22;4867;48.112;11.622;2023-06-22T11:59:49;34.60;94.10
9658;DHT22;4867;48.112;11.622;2023-06-22T12:02:16;34.60;94.10
9658;DHT22;4867;48.112;11.622;2023-06-22T12:04:44;34.60;94.10
9658;DHT22;4867;48.112;11.622;2023-06-22T12:07:20;34.70;94.30
9658;DHT22;4867;48.112;11.622;2023-06-22T12:09:48;34.80;93.70
9658;DHT22;4867;48.112;11.622;2023-06-22T12:12:15;34.80;93.60
9658;DHT22;4867;48.112;11.622;2023-06-22T12:14:42;34.80;93.40
9658;DHT22;4867;48.112;11.622;2023-06-22T12:17:09;34.90;93.40
9658;DHT22;4867;48.112;11.622;2023-06-22T12:19:37;34.90;93.30
9658;DHT22;4867;48.112;11.622;2023-06-22T12:22:04;34.80;93.40
9658;DHT22;4867;48.112;11.622;2023-06-22T12:24:31;34.80;93.60
9658;DHT22;4867;48.112;11.622;2023-06-22T12:26:58;35.00;93.80
9658;DHT22;4867;48.112;11.622;2023-06-22T12:29:26;35.30;93.30
9658;DHT22;4867;48.112;11.622;2023-06-22T12:31:53;35.40;93.00
9658;DHT22;4867;48.112;11.622;2023-06-22T12:34:20;35.50;92.70
9658;DHT22;4867;48.112;11.622;2023-06-22T12:36:48;35.50;91.90
9658;DHT22;4867;48.112;11.622;2023-06-22T12:39:15;35.60;92.00
9658;DHT22;4867;48.112;11.622;2023-06-22T12:41:43;35.50;92.00
9658;DHT22;4867;48.112;11.622;2023-06-22T12:44:10;35.60;92.10
9658;DHT22;4867;48.112;11.622;2023-06-22T12:46:38;35.60;91.60
9658;DHT22;4867;48.112;11.622;2023-06-22T12:49:05;35.60;92.00
9658;DHT22;4867;48.112;11.622;2023-06-22T12:51:32;35.50;91.70
9658;DHT22;4867;48.112;11.622;2023-06-22T12:54:01;35.30;91.50
9658;DHT22;4867;48.112;11.622;2023-06-22T12:56:28;35.10;91.90
9658;DHT22;4867;48.112;11.622;2023-06-22T12:58:55;35.10;91.80
9658;DHT22;4867;48.112;11.622;2023-06-22T13:01:23;35.20;91.90
9658;DHT22;4867;48.112;11.622;2023-06-22T13:03:50;35.30;91.50
9658;DHT22;4867;48.112;11.622;2023-06-22T13:06:18;35.50;91.70
9658;DHT22;4867;48.112;11.622;2023-06-22T13:08:45;35.70;91.20
9658;DHT22;4867;48.112;11.622;2023-06-22T13:11:16;35.70;91.20
9658;DHT22;4867;48.112;11.622;2023-06-22T13:13:45;35.80;91.00
9658;DHT22;4867;48.112;11.622;2023-06-22T13:16:12;36.00;90.80
9658;DHT22;4867;48.112;11.622;2023-06-22T13:18:40;36.30;90.70
9658;DHT22;4867;48.112;11.622;2023-06-22T13:21:07;36.30;89.30
9658;DHT22;4867;48.112;11.622;2023-06-22T13:23:34;36.40;88.00
9658;DHT22;4867;48.112;11.622;2023-06-22T13:26:02;36.30;88.40
9658;DHT22;4867;48.112;11.622;2023-06-22T13:28:29;36.30;87.90
9658;DHT22;4867;48.112;11.622;2023-06-22T13:30:57;36.40;86.50
9658;DHT22;4867;48.112;11.622;2023-06-22T13:33:24;36.40;86.80
9658;DHT22;4867;48.112;11.622;2023-06-22T13:35:52;36.50;87.60
9658;DHT22;4867;48.112;11.622;2023-06-22T13:38:19;36.60;87.30
9658;DHT22;4867;48.112;11.622;2023-06-22T13:40:46;36.70;87.30
9658;DHT22;4867;48.112;11.622;2023-06-22T13:43:14;36.70;89.20
9658;DHT22;4867;48.112;11.622;2023-06-22T13:45:43;36.70;87.80
9658;DHT22;4867;48.112;11.622;2023-06-22T13:48:10;36.60;86.00
9658;DHT22;4867;48.112;11.622;2023-06-22T13:50:38;36.50;86.80
9658;DHT22;4867;48.112;11.622;2023-06-22T13:53:05;36.50;86.90
9658;DHT22;4867;48.112;11.622;2023-06-22T13:55:32;36.50;88.70
9658;DHT22;4867;48.112;11.622;2023-06-22T13:58:00;36.50;89.40
9658;DHT22;4867;48.112;11.622;2023-06-22T14:00:27;36.50;88.90
9658;DHT22;4867;48.112;11.622;2023-06-22T14:02:55;36.40;90.00
9658;DHT22;4867;48.112;11.622;2023-06-22T14:05:23;36.40;90.00
9658;DHT22;4867;48.112;11.622;2023-06-22T14:07:50;36.20;90.40
9658;DHT22;4867;48.112;11.622;2023-06-22T14:10:18;36.10;90.20
9658;DHT22;4867;48.112;11.622;2023-06-22T14:12:45;36.00;90.00
9658;DHT22;4867;48.112;11.622;2023-06-22T14:15:13;36.10;90.20
9658;DHT22;4867;48.112;11.622;2023-06-22T14:17:40;36.00;90.10
9658;DHT22;4867;48.112;11.622;2023-06-22T14:20:08;36.00;90.40
9658;DHT22;4867;48.112;11.622;2023-06-22T14:22:35;36.10;90.60
9658;DHT22;4867;48.112;11.622;2023-06-22T14:25:04;35.90;90.20
9658;DHT22;4867;48.112;11.622;2023-06-22T14:27:32;35.80;90.70
9658;DHT22;4867;48.112;11.622;2023-06-22T14:29:59;35.60;90.30
9658;DHT22;4867;48.112;11.622;2023-06-22T14:32:28;35.50;90.20
9658;DHT22;4867;48.112;11.622;2023-06-22T14:34:57;35.40;91.00
9658;DHT22;4867;48.112;11.622;2023-06-22T14:37:24;35.40;91.10
9658;DHT22;4867;48.112;11.622;2023-06-22T14:39:52;35.50;91.50
9658;DHT22;4867;48.112;11.622;2023-06-22T14:42:19;35.40;91.60
9658;DHT22;4867;48.112;11.622;2023-06-22T14:44:46;35.50;91.50
9658;DHT22;4867;48.112;11.622;2023-06-22T14:47:14;35.30;91.40
9658;DHT22;4867;48.112;11.622;2023-06-22T14:49:41;35.10;91.70
9658;DHT22;4867;48.112;11.622;2023-06-22T14:52:08;35.00;91.50
9658;DHT22;4867;48.112;11.622;2023-06-22T14:54:36;35.00;91.60
9658;DHT22;4867;48.112;11.622;2023-06-22T14:57:03;34.90;91.50
9658;DHT22;4867;48.112;11.622;2023-06-22T14:59:31;34.90;91.90
9658;DHT22;4867;48.112;11.622;2023-06-22T15:01:58;34.90;92.00
9658;DHT22;4867;48.112;11.622;2023-06-22T15:04:25;34.90;91.90
9658;DHT22;4867;48.112;11.622;2023-06-22T15:06:58;35.00;91.70
9658;DHT22;4867;48.112;11.622;2023-06-22T15:09:25;35.10;91.60
9658;DHT22;4867;48.112;11.622;2023-06-22T15:11:54;35.10;91.60
9658;DHT22;4867;48.112;11.622;2023-06-22T15:14:21;35.00;91.60
9658;DHT22;4867;48.112;11.622;2023-06-22T15:16:49;34.90;91.50
9658;DHT22;4867;48.112;11.622;2023-06-22T15:19:16;34.90;91.50
9658;DHT22;4867;48.112;11.622;2023-06-22T15:21:44;34.80;91.90
9658;DHT22;4867;48.112;11.622;2023-06-22T15:24:11;34.80;91.70
9658;DHT22;4867;48.112;11.622;2023-06-22T15:26:39;34.70;91.70
9658;DHT22;4867;48.112;11.622;2023-06-22T15:29:06;34.70;91.70
9658;DHT22;4867;48.112;11.622;2023-06-22T15:31:34;34.60;91.90
9658;DHT22;4867;48.112;11.622;2023-06-22T15:34:01;34.50;91.90
9658;DHT22;4867;48.112;11.622;2023-06-22T15:36:30;34.50;92.00
9658;DHT22;4867;48.112;11.622;2023-06-22T15:38:58;34.40;92.00
9658;DHT22;4867;48.112;11.622;2023-06-22T15:41:25;34.30;91.60
9658;DHT22;4867;48.112;11.622;2023-06-22T15:43:52;34.50;91.60
9658;DHT22;4867;48.112;11.622;2023-06-22T15:46:20;34.60;91.10
9658;DHT22;4867;48.112;11.622;2023-06-22T15:48:48;34.70;90.90
9658;DHT22;4867;48.112;11.622;2023-06-22T15:51:18;34.90;90.50
9658;DHT22;4867;48.112;11.622;2023-06-22T15:53:45;35.20;90.40